createdAt,value
2018-07-30T00:02:08.014Z,26.27
2018-07-30T00:07:00.570Z,26.22
2018-07-30T00:11:53.150Z,26.18
2018-07-30T00:16:45.754Z,26.12
2018-07-30T00:21:38.319Z,26.08
2018-07-30T00:26:30.856Z,26.00
2018-07-30T00:31:23.417Z,25.92
2018-07-30T00:36:16.364Z,25.88
2018-07-30T00:41:08.967Z,25.86
2018-07-30T00:46:01.588Z,25.83
2018-07-30T00:50:54.105Z,25.78
2018-07-30T00:55:46.652Z,25.71
2018-07-30T01:00:39.233Z,25.70
2018-07-30T01:05:31.824Z,25.68
2018-07-30T01:10:24.410Z,25.66
2018-07-30T01:15:16.946Z,25.66
2018-07-30T01:20:09.486Z,25.66
2018-07-30T01:25:02.065Z,25.65
2018-07-30T01:29:54.621Z,25.65
2018-07-30T01:34:47.188Z,25.65
2018-07-30T01:39:39.814Z,25.58
2018-07-30T01:44:32.338Z,25.57
2018-07-30T01:49:24.925Z,25.59
2018-07-30T01:54:17.457Z,25.54
2018-07-30T01:59:10.044Z,25.52
2018-07-30T02:04:02.541Z,25.49
2018-07-30T02:08:55.177Z,25.47
2018-07-30T02:13:47.713Z,25.42
2018-07-30T02:18:40.230Z,25.38
2018-07-30T02:23:32.771Z,25.33
2018-07-30T02:28:25.374Z,25.28
2018-07-30T02:33:17.935Z,25.25
2018-07-30T02:38:10.572Z,25.24
2018-07-30T02:43:03.150Z,25.23
2018-07-30T02:47:55.759Z,25.26
2018-07-30T02:52:48.293Z,25.25
2018-07-30T02:57:40.866Z,25.23
2018-07-30T03:02:33.430Z,25.23
2018-07-30T03:07:26.122Z,25.25
2018-07-30T03:12:18.763Z,25.24
2018-07-30T03:17:11.369Z,25.21
2018-07-30T03:22:03.934Z,25.19
2018-07-30T03:26:56.501Z,25.16
2018-07-30T03:31:49.049Z,25.10
2018-07-30T03:36:41.691Z,25.04
2018-07-30T03:41:34.296Z,25.01
2018-07-30T03:46:26.866Z,25.03
2018-07-30T03:51:19.426Z,25.04
2018-07-30T03:56:12.116Z,25.03
2018-07-30T04:01:04.716Z,24.98
2018-07-30T04:05:57.470Z,24.98
2018-07-30T04:10:50.110Z,24.98
2018-07-30T04:15:42.894Z,25.00
2018-07-30T04:20:35.579Z,25.01
2018-07-30T04:25:28.127Z,25.00
2018-07-30T04:30:20.674Z,24.97
2018-07-30T04:35:13.399Z,24.96
2018-07-30T04:40:06.031Z,25.01
2018-07-30T04:44:58.668Z,25.04
2018-07-30T04:49:51.307Z,25.06
2018-07-30T04:54:43.902Z,25.07
2018-07-30T04:59:36.447Z,25.06
2018-07-30T05:04:28.993Z,25.08
2018-07-30T05:09:21.564Z,25.13
2018-07-30T05:14:14.210Z,25.16
2018-07-30T05:19:06.748Z,25.18
2018-07-30T05:23:59.398Z,25.20
2018-07-30T05:28:51.987Z,25.22
2018-07-30T05:33:44.576Z,25.25
2018-07-30T05:38:37.190Z,25.24
2018-07-30T05:43:29.702Z,25.24
2018-07-30T05:48:22.311Z,25.25
2018-07-30T05:53:14.898Z,25.29
2018-07-30T05:58:07.789Z,25.35
2018-07-30T06:03:00.413Z,25.35
2018-07-30T06:07:53.006Z,25.36
2018-07-30T06:12:45.745Z,25.36
2018-07-30T06:17:38.374Z,25.38
2018-07-30T06:22:31.001Z,25.41
2018-07-30T06:27:23.599Z,25.39
2018-07-30T06:32:16.223Z,25.40
2018-07-30T06:37:08.893Z,25.40
2018-07-30T06:42:01.456Z,25.43
2018-07-30T06:46:54.067Z,25.46
2018-07-30T06:51:46.654Z,25.51
2018-07-30T06:56:39.240Z,25.52
2018-07-30T07:01:31.815Z,25.53
2018-07-30T07:06:24.397Z,25.58
2018-07-30T07:11:17.020Z,25.60
2018-07-30T07:16:09.541Z,25.63
2018-07-30T07:21:02.111Z,25.69
2018-07-30T07:25:54.744Z,25.78
2018-07-30T07:30:47.427Z,25.90
2018-07-30T07:35:39.990Z,26.25
2018-07-30T07:40:32.571Z,27.18
2018-07-30T07:45:25.195Z,28.49
2018-07-30T07:50:17.965Z,29.67
2018-07-30T07:55:10.516Z,30.67
2018-07-30T08:00:05.638Z,31.69
2018-07-30T08:04:58.284Z,32.37
2018-07-30T08:09:51.053Z,32.86
2018-07-30T08:14:43.539Z,33.26
2018-07-30T08:19:36.126Z,33.17
2018-07-30T08:24:28.809Z,33.06
2018-07-30T08:29:21.403Z,33.02
2018-07-30T08:34:14.028Z,32.84
2018-07-30T08:39:08.799Z,32.73
2018-07-30T08:44:01.359Z,32.48
2018-07-30T08:48:53.935Z,32.22
2018-07-30T08:53:46.578Z,32.04
2018-07-30T08:58:39.384Z,31.94
2018-07-30T09:03:32.054Z,31.73
2018-07-30T09:08:24.702Z,31.78
2018-07-30T09:13:17.311Z,31.95
2018-07-30T09:18:09.949Z,32.05
2018-07-30T09:23:02.551Z,31.90
2018-07-30T09:27:55.171Z,31.84
2018-07-30T09:32:47.797Z,31.80
2018-07-30T09:37:40.568Z,31.76
2018-07-30T09:42:33.224Z,31.90
2018-07-30T09:47:25.865Z,32.18
2018-07-30T09:52:18.556Z,32.36
2018-07-30T09:57:11.180Z,32.58
2018-07-30T10:02:03.801Z,32.68
2018-07-30T10:06:56.356Z,32.76
2018-07-30T10:11:49.063Z,32.90
2018-07-30T10:16:41.560Z,33.09
2018-07-30T10:21:34.186Z,33.28
2018-07-30T10:26:26.768Z,33.47
2018-07-30T10:31:19.339Z,33.63
2018-07-30T10:36:11.903Z,33.67
2018-07-30T10:41:04.599Z,33.77
2018-07-30T10:45:57.099Z,33.79
2018-07-30T10:50:49.671Z,33.89
2018-07-30T10:55:42.326Z,33.93
2018-07-30T11:00:34.906Z,33.94
2018-07-30T11:05:27.462Z,34.01
2018-07-30T11:10:19.974Z,34.19
2018-07-30T11:15:12.569Z,34.26
2018-07-30T11:20:05.346Z,34.32
2018-07-30T11:24:58.029Z,34.50
2018-07-30T11:29:50.668Z,34.60
2018-07-30T11:34:43.271Z,34.75
2018-07-30T11:39:35.844Z,34.93
2018-07-30T11:44:28.480Z,35.09
2018-07-30T11:49:21.058Z,35.03
2018-07-30T11:54:13.696Z,35.11
2018-07-30T11:59:06.246Z,34.99
2018-07-30T12:03:58.814Z,34.95
2018-07-30T12:08:51.339Z,34.99
2018-07-30T12:13:43.906Z,35.12
2018-07-30T12:18:36.548Z,35.29
2018-07-30T12:23:29.090Z,35.44
2018-07-30T12:28:21.793Z,35.51
2018-07-30T12:33:14.452Z,35.55
2018-07-30T12:38:07.191Z,35.59
2018-07-30T12:42:59.859Z,35.65
2018-07-30T12:47:52.487Z,35.66
2018-07-30T12:52:45.131Z,35.70
2018-07-30T12:57:37.765Z,35.71
2018-07-30T13:02:30.360Z,35.79
2018-07-30T13:07:23.210Z,35.79
2018-07-30T13:12:15.826Z,35.79
2018-07-30T13:17:08.491Z,35.89
2018-07-30T13:22:01.062Z,35.93
2018-07-30T13:26:53.666Z,35.98
2018-07-30T13:31:47.090Z,36.12
2018-07-30T13:36:39.899Z,36.23
2018-07-30T13:41:32.582Z,36.31
2018-07-30T13:46:25.148Z,36.36
2018-07-30T13:51:17.773Z,36.38
2018-07-30T13:56:10.655Z,36.33
2018-07-30T14:01:03.254Z,36.38
2018-07-30T14:05:55.864Z,36.39
2018-07-30T14:10:48.459Z,36.09
2018-07-30T14:15:41.134Z,36.15
2018-07-30T14:20:33.692Z,36.27
2018-07-30T14:25:26.415Z,36.30
2018-07-30T14:30:19.060Z,36.35
2018-07-30T14:35:11.716Z,36.36
2018-07-30T14:40:08.638Z,36.34
2018-07-30T14:45:01.214Z,36.38
2018-07-30T14:49:53.803Z,36.28
2018-07-30T14:54:46.639Z,36.28
2018-07-30T14:59:39.245Z,36.31
2018-07-30T15:04:31.887Z,36.33
2018-07-30T15:09:24.442Z,36.34
2018-07-30T15:14:17.272Z,36.32
2018-07-30T15:19:09.901Z,36.30
2018-07-30T15:24:02.550Z,36.26
2018-07-30T15:28:55.148Z,36.16
2018-07-30T15:33:47.689Z,36.00
2018-07-30T15:38:40.351Z,35.82
2018-07-30T15:43:33.000Z,35.68
2018-07-30T15:48:25.692Z,35.69
2018-07-30T15:53:18.259Z,35.64
2018-07-30T15:58:10.826Z,35.63
2018-07-30T16:03:03.666Z,35.54
2018-07-30T16:07:56.283Z,35.49
2018-07-30T16:12:48.807Z,35.41
2018-07-30T16:17:41.370Z,35.36
2018-07-30T16:22:33.957Z,35.31
2018-07-30T16:27:26.583Z,35.27
2018-07-30T16:32:19.371Z,35.21
2018-07-30T16:37:11.938Z,35.14
2018-07-30T16:42:04.766Z,35.08
2018-07-30T16:46:57.363Z,34.99
2018-07-30T16:51:49.967Z,34.91
2018-07-30T16:56:42.554Z,34.85
2018-07-30T17:01:35.232Z,34.79
2018-07-30T17:06:27.793Z,34.76
2018-07-30T17:11:20.429Z,34.70
2018-07-30T17:16:12.955Z,34.62
2018-07-30T17:21:06.072Z,34.56
2018-07-30T17:25:58.701Z,34.46
2018-07-30T17:30:51.272Z,34.37
2018-07-30T17:35:43.846Z,34.26
2018-07-30T17:40:36.594Z,34.16
2018-07-30T17:45:29.146Z,34.08
2018-07-30T17:50:21.738Z,34.01
2018-07-30T17:55:14.282Z,33.93
2018-07-30T18:00:08.938Z,33.83
2018-07-30T18:05:01.634Z,33.76
2018-07-30T18:09:54.715Z,33.68
2018-07-30T18:14:47.353Z,33.58
2018-07-30T18:19:39.978Z,33.49
2018-07-30T18:24:32.653Z,33.38
2018-07-30T18:29:25.246Z,33.30
2018-07-30T18:34:18.034Z,33.22
2018-07-30T18:39:10.661Z,33.09
2018-07-30T18:44:03.278Z,32.98
2018-07-30T18:48:55.841Z,32.88
2018-07-30T18:53:48.635Z,32.78
2018-07-30T18:58:41.316Z,32.68
2018-07-30T19:03:33.875Z,32.56
2018-07-30T19:08:26.451Z,32.46
2018-07-30T19:13:19.046Z,32.36
2018-07-30T19:18:11.684Z,32.26
2018-07-30T19:23:04.205Z,32.17
2018-07-30T19:27:56.766Z,32.07
2018-07-30T19:32:49.373Z,31.97
2018-07-30T19:37:41.959Z,31.86
2018-07-30T19:42:34.662Z,31.75
2018-07-30T19:47:27.353Z,31.66
2018-07-30T19:52:20.022Z,31.67
2018-07-30T19:57:12.614Z,31.21
2018-07-30T20:02:05.198Z,30.73
2018-07-30T20:06:57.863Z,30.59
2018-07-30T20:11:50.440Z,30.60
2018-07-30T20:16:43.033Z,30.56
2018-07-30T20:21:35.592Z,30.51
2018-07-30T20:26:28.433Z,30.51
2018-07-30T20:31:24.978Z,30.46
2018-07-30T20:36:17.546Z,30.44
2018-07-30T20:41:10.217Z,30.37
2018-07-30T20:46:02.838Z,30.30
2018-07-30T20:50:55.377Z,30.25
2018-07-30T20:55:48.020Z,30.18
2018-07-30T21:00:40.588Z,30.12
2018-07-30T21:05:37.960Z,30.04
2018-07-30T21:10:30.564Z,29.98
2018-07-30T21:15:23.078Z,29.93
2018-07-30T21:20:15.645Z,29.86
2018-07-30T21:25:08.226Z,29.78
2018-07-30T21:30:00.757Z,29.71
2018-07-30T21:34:53.365Z,29.63
2018-07-30T21:39:46.001Z,29.54
2018-07-30T21:44:38.568Z,29.42
2018-07-30T21:49:31.172Z,29.33
2018-07-30T21:54:23.783Z,29.21
2018-07-30T21:59:16.293Z,29.09
2018-07-30T22:04:08.987Z,29.02
2018-07-30T22:09:01.555Z,28.95
2018-07-30T22:13:54.114Z,28.88
2018-07-30T22:18:46.754Z,28.83
2018-07-30T22:23:39.353Z,28.81
2018-07-30T22:28:31.956Z,28.78
2018-07-30T22:33:24.486Z,28.72
2018-07-30T22:38:17.095Z,28.66
2018-07-30T22:43:10.198Z,28.62
2018-07-30T22:48:02.727Z,28.58
2018-07-30T22:52:55.310Z,28.50
2018-07-30T22:57:47.859Z,28.41
2018-07-30T23:02:40.415Z,28.32
2018-07-30T23:07:32.966Z,28.27
2018-07-30T23:12:25.506Z,28.25
2018-07-30T23:17:18.107Z,28.20
2018-07-30T23:22:10.678Z,28.17
2018-07-30T23:27:03.278Z,28.13
2018-07-30T23:31:55.825Z,28.08
2018-07-30T23:36:48.566Z,28.04
2018-07-30T23:41:41.071Z,27.97
2018-07-30T23:46:33.636Z,27.91
2018-07-30T23:51:26.303Z,27.83
2018-07-30T23:56:18.887Z,27.73
